sensor_id;sensor_type;location;lat;lon;timestamp;pressure;altitude;pressure_sealevel;temperature;humidity
25722;BME280;13578;53.450;15.496;2023-01-19T00:00:16;98315.47;;;-1.25;100.00
25722;BME280;13578;53.450;15.496;2023-01-19T00:03:17;98305.00;;;-1.30;100.00
25722;BME280;13578;53.450;15.496;2023-01-19T00:06:18;98305.47;;;-1.37;100.00
25722;BME280;13578;53.450;15.496;2023-01-19T00:09:18;98305.06;;;-1.31;100.00
25722;BME280;13578;53.450;15.496;2023-01-19T00:12:19;98302.59;;;-1.34;100.00
25722;BME280;13578;53.450;15.496;2023-01-19T00:15:19;98306.66;;;-1.41;100.00
25722;BME280;13578;53.450;15.496;2023-01-19T00:18:20;98302.50;;;-1.47;100.00
25722;BME280;13578;53.450;15.496;2023-01-19T00:21:20;98304.53;;;-1.51;100.00
25722;BME280;13578;53.450;15.496;2023-01-19T00:24:21;98306.56;;;-1.54;100.00
25722;BME280;13578;53.450;15.496;2023-01-19T00:27:22;98316.56;;;-1.56;100.00
25722;BME280;13578;53.450;15.496;2023-01-19T00:30:22;98314.06;;;-1.60;100.00
25722;BME280;13578;53.450;15.496;2023-01-19T00:33:23;98312.44;;;-1.62;100.00
25722;BME280;13578;53.450;15.496;2023-01-19T00:36:24;98322.44;;;-1.64;100.00
25722;BME280;13578;53.450;15.496;2023-01-19T00:39:24;98326.94;;;-1.65;100.00
25722;BME280;13578;53.450;15.496;2023-01-19T00:42:25;98324.56;;;-1.69;100.00
25722;BME280;13578;53.450;15.496;2023-01-19T00:45:44;98333.50;;;-1.69;100.00
25722;BME280;13578;53.450;15.496;2023-01-19T00:48:45;98331.19;;;-1.61;100.00
25722;BME280;13578;53.450;15.496;2023-01-19T00:51:45;98343.41;;;-1.69;100.00
25722;BME280;13578;53.450;15.496;2023-01-19T00:54:46;98354.22;;;-1.85;100.00
25722;BME280;13578;53.450;15.496;2023-01-19T00:57:46;98355.56;;;-1.93;100.00
25722;BME280;13578;53.450;15.496;2023-01-19T01:00:48;98371.25;;;-1.99;100.00
25722;BME280;13578;53.450;15.496;2023-01-19T01:03:48;98370.63;;;-2.04;100.00
25722;BME280;13578;53.450;15.496;2023-01-19T01:06:49;98380.25;;;-2.15;100.00
25722;BME280;13578;53.450;15.496;2023-01-19T01:09:50;98387.41;;;-2.15;100.00
25722;BME280;13578;53.450;15.496;2023-01-19T01:12:51;98393.44;;;-2.26;100.00
25722;BME280;13578;53.450;15.496;2023-01-19T01:15:53;98405.06;;;-2.26;100.00
25722;BME280;13578;53.450;15.496;2023-01-19T01:18:54;98410.50;;;-2.27;100.00
25722;BME280;13578;53.450;15.496;2023-01-19T01:21:54;98420.16;;;-2.23;100.00
25722;BME280;13578;53.450;15.496;2023-01-19T01:24:55;98416.50;;;-2.22;100.00
25722;BME280;13578;53.450;15.496;2023-01-19T01:27:56;98416.88;;;-2.28;100.00
25722;BME280;13578;53.450;15.496;2023-01-19T01:30:56;98421.84;;;-2.36;100.00
25722;BME280;13578;53.450;15.496;2023-01-19T01:33:57;98416.03;;;-2.45;100.00
25722;BME280;13578;53.450;15.496;2023-01-19T01:36:57;98424.91;;;-2.59;100.00
25722;BME280;13578;53.450;15.496;2023-01-19T01:39:58;98422.06;;;-2.72;100.00
25722;BME280;13578;53.450;15.496;2023-01-19T01:42:58;98424.91;;;-2.59;100.00
25722;BME280;13578;53.450;15.496;2023-01-19T01:45:59;98430.22;;;-2.57;100.00
25722;BME280;13578;53.450;15.496;2023-01-19T01:49:07;98437.47;;;-2.59;100.00
25722;BME280;13578;53.450;15.496;2023-01-19T01:52:10;98432.78;;;-2.56;100.00
25722;BME280;13578;53.450;15.496;2023-01-19T01:55:13;98438.25;;;-2.57;100.00
25722;BME280;13578;53.450;15.496;2023-01-19T01:58:15;98437.56;;;-2.61;100.00
25722;BME280;13578;53.450;15.496;2023-01-19T02:01:16;98432.00;;;-2.58;100.00
25722;BME280;13578;53.450;15.496;2023-01-19T02:04:36;98443.44;;;-2.54;100.00
25722;BME280;13578;53.450;15.496;2023-01-19T02:07:45;98444.50;;;-2.57;100.00
25722;BME280;13578;53.450;15.496;2023-01-19T02:11:05;98444.84;;;-2.63;100.00
25722;BME280;13578;53.450;15.496;2023-01-19T02:14:25;98446.22;;;-2.72;100.00
25722;BME280;13578;53.450;15.496;2023-01-19T02:17:25;98449.03;;;-2.89;100.00
25722;BME280;13578;53.450;15.496;2023-01-19T02:20:27;98441.75;;;-2.87;100.00
25722;BME280;13578;53.450;15.496;2023-01-19T02:23:37;98445.75;;;-2.94;100.00
25722;BME280;13578;53.450;15.496;2023-01-19T02:26:43;98453.78;;;-2.94;100.00
25722;BME280;13578;53.450;15.496;2023-01-19T02:29:45;98459.47;;;-3.00;100.00
25722;BME280;13578;53.450;15.496;2023-01-19T02:32:46;98465.03;;;-3.04;100.00
25722;BME280;13578;53.450;15.496;2023-01-19T02:35:48;98463.31;;;-3.05;100.00
25722;BME280;13578;53.450;15.496;2023-01-19T02:38:52;98459.47;;;-3.00;100.00
25722;BME280;13578;53.450;15.496;2023-01-19T02:42:00;98453.25;;;-3.01;100.00
25722;BME280;13578;53.450;15.496;2023-01-19T02:45:03;98447.03;;;-3.01;100.00
25722;BME280;13578;53.450;15.496;2023-01-19T02:48:06;98450.47;;;-2.99;100.00
25722;BME280;13578;53.450;15.496;2023-01-19T02:51:16;98456.78;;;-3.00;100.00
25722;BME280;13578;53.450;15.496;2023-01-19T02:54:27;98456.78;;;-3.16;100.00
25722;BME280;13578;53.450;15.496;2023-01-19T03:00:59;98462.75;;;-3.11;100.00
25722;BME280;13578;53.450;15.496;2023-01-19T03:04:26;98463.66;;;-3.11;100.00
25722;BME280;13578;53.450;15.496;2023-01-19T03:14:18;98471.00;;;-3.14;100.00
25722;BME280;13578;53.450;15.496;2023-01-19T03:17:20;98467.31;;;-3.29;100.00
25722;BME280;13578;53.450;15.496;2023-01-19T03:20:22;98462.06;;;-3.31;100.00
25722;BME280;13578;53.450;15.496;2023-01-19T03:23:26;98459.28;;;-3.29;100.00
25722;BME280;13578;53.450;15.496;2023-01-19T03:26:32;98468.72;;;-3.22;100.00
25722;BME280;13578;53.450;15.496;2023-01-19T03:29:37;98460.06;;;-3.27;100.00
25722;BME280;13578;53.450;15.496;2023-01-19T03:32:47;98467.03;;;-3.23;100.00
25722;BME280;13578;53.450;15.496;2023-01-19T03:35:51;98474.28;;;-3.25;100.00
25722;BME280;13578;53.450;15.496;2023-01-19T03:38:54;98469.41;;;-3.35;100.00
25722;BME280;13578;53.450;15.496;2023-01-19T03:42:01;98466.72;;;-3.35;100.00
25722;BME280;13578;53.450;15.496;2023-01-19T03:45:04;98472.44;;;-3.41;100.00
25722;BME280;13578;53.450;15.496;2023-01-19T03:48:05;98476.38;;;-3.48;100.00
25722;BME280;13578;53.450;15.496;2023-01-19T03:51:08;98469.28;;;-3.49;100.00
25722;BME280;13578;53.450;15.496;2023-01-19T03:54:10;98465.81;;;-3.51;100.00
25722;BME280;13578;53.450;15.496;2023-01-19T03:57:10;98471.19;;;-3.51;100.00
25722;BME280;13578;53.450;15.496;2023-01-19T04:00:12;98474.91;;;-3.54;100.00
25722;BME280;13578;53.450;15.496;2023-01-19T04:03:14;98462.19;;;-3.50;100.00
25722;BME280;13578;53.450;15.496;2023-01-19T04:06:16;98463.47;;;-3.57;100.00
25722;BME280;13578;53.450;15.496;2023-01-19T04:09:17;98471.03;;;-3.65;100.00
25722;BME280;13578;53.450;15.496;2023-01-19T04:12:17;98464.44;;;-3.76;100.00
25722;BME280;13578;53.450;15.496;2023-01-19T04:15:18;98466.50;;;-3.81;100.00
25722;BME280;13578;53.450;15.496;2023-01-19T04:18:19;98463.03;;;-3.83;100.00
25722;BME280;13578;53.450;15.496;2023-01-19T04:21:20;98466.56;;;-3.83;100.00
25722;BME280;13578;53.450;15.496;2023-01-19T04:24:20;98466.00;;;-3.72;100.00
25722;BME280;13578;53.450;15.496;2023-01-19T04:27:21;98473.13;;;-3.71;100.00
25722;BME280;13578;53.450;15.496;2023-01-19T04:30:22;98470.53;;;-3.72;100.00
25722;BME280;13578;53.450;15.496;2023-01-19T04:33:23;98467.59;;;-3.68;100.00
25722;BME280;13578;53.450;15.496;2023-01-19T04:36:24;98470.59;;;-3.74;100.00
25722;BME280;13578;53.450;15.496;2023-01-19T04:39:25;98472.56;;;-3.77;100.00
25722;BME280;13578;53.450;15.496;2023-01-19T04:42:26;98469.16;;;-3.81;100.00
25722;BME280;13578;53.450;15.496;2023-01-19T04:45:27;98460.97;;;-3.78;100.00
25722;BME280;13578;53.450;15.496;2023-01-19T04:48:27;98460.28;;;-3.81;100.00
25722;BME280;13578;53.450;15.496;2023-01-19T04:51:28;98443.81;;;-3.91;100.00
25722;BME280;13578;53.450;15.496;2023-01-19T04:54:29;98454.53;;;-3.91;100.00
25722;BME280;13578;53.450;15.496;2023-01-19T04:57:30;98445.69;;;-3.93;100.00
25722;BME280;13578;53.450;15.496;2023-01-19T05:00:31;98458.31;;;-3.95;100.00
25722;BME280;13578;53.450;15.496;2023-01-19T05:03:32;98455.00;;;-4.01;100.00
25722;BME280;13578;53.450;15.496;2023-01-19T05:06:33;98460.50;;;-4.04;100.00
25722;BME280;13578;53.450;15.496;2023-01-19T05:09:34;98463.31;;;-4.23;100.00
25722;BME280;13578;53.450;15.496;2023-01-19T05:12:35;98472.06;;;-4.19;100.00
25722;BME280;13578;53.450;15.496;2023-01-19T05:15:36;98479.50;;;-4.26;100.00
25722;BME280;13578;53.450;15.496;2023-01-19T05:18:36;98471.22;;;-4.39;100.00
25722;BME280;13578;53.450;15.496;2023-01-19T05:21:37;98472.88;;;-4.54;100.00
25722;BME280;13578;53.450;15.496;2023-01-19T05:24:38;98469.63;;;-4.60;100.00
25722;BME280;13578;53.450;15.496;2023-01-19T05:27:38;98472.78;;;-4.52;100.00
25722;BME280;13578;53.450;15.496;2023-01-19T05:30:39;98478.50;;;-4.41;100.00
25722;BME280;13578;53.450;15.496;2023-01-19T05:33:39;98475.81;;;-4.41;100.00
25722;BME280;13578;53.450;15.496;2023-01-19T05:36:41;98482.41;;;-4.48;100.00
25722;BME280;13578;53.450;15.496;2023-01-19T05:39:41;98486.19;;;-4.52;100.00
25722;BME280;13578;53.450;15.496;2023-01-19T05:42:42;98481.94;;;-4.56;100.00
25722;BME280;13578;53.450;15.496;2023-01-19T05:45:43;98490.31;;;-4.64;100.00
25722;BME280;13578;53.450;15.496;2023-01-19T05:48:44;98490.53;;;-4.69;100.00
25722;BME280;13578;53.450;15.496;2023-01-19T05:51:44;98502.78;;;-4.82;100.00
25722;BME280;13578;53.450;15.496;2023-01-19T05:54:45;98508.44;;;-4.88;100.00
25722;BME280;13578;53.450;15.496;2023-01-19T05:57:47;98503.94;;;-4.88;100.00
25722;BME280;13578;53.450;15.496;2023-01-19T06:00:47;98509.25;;;-4.86;100.00
25722;BME280;13578;53.450;15.496;2023-01-19T06:03:48;98518.34;;;-4.90;100.00
25722;BME280;13578;53.450;15.496;2023-01-19T06:06:49;98531.88;;;-4.93;100.00
25722;BME280;13578;53.450;15.496;2023-01-19T06:09:50;98518.63;;;-4.97;100.00
25722;BME280;13578;53.450;15.496;2023-01-19T06:12:50;98520.59;;;-4.81;100.00
25722;BME280;13578;53.450;15.496;2023-01-19T06:15:58;98523.34;;;-4.83;100.00
25722;BME280;13578;53.450;15.496;2023-01-19T06:18:58;98524.19;;;-4.82;100.00
25722;BME280;13578;53.450;15.496;2023-01-19T06:21:59;98531.88;;;-4.74;100.00
25722;BME280;13578;53.450;15.496;2023-01-19T06:25:00;98534.47;;;-4.73;100.00
25722;BME280;13578;53.450;15.496;2023-01-19T06:28:00;98534.41;;;-4.71;100.00
25722;BME280;13578;53.450;15.496;2023-01-19T06:31:01;98533.53;;;-4.72;100.00
25722;BME280;13578;53.450;15.496;2023-01-19T06:34:02;98542.84;;;-4.81;100.00
25722;BME280;13578;53.450;15.496;2023-01-19T06:37:03;98545.09;;;-4.90;100.00
25722;BME280;13578;53.450;15.496;2023-01-19T06:40:05;98542.63;;;-4.95;100.00
25722;BME280;13578;53.450;15.496;2023-01-19T06:43:06;98546.53;;;-5.02;100.00
25722;BME280;13578;53.450;15.496;2023-01-19T06:46:07;98565.06;;;-4.98;100.00
25722;BME280;13578;53.450;15.496;2023-01-19T06:49:08;98560.88;;;-4.84;100.00
25722;BME280;13578;53.450;15.496;2023-01-19T06:52:09;98561.63;;;-5.00;100.00
25722;BME280;13578;53.450;15.496;2023-01-19T06:55:10;98567.69;;;-4.96;100.00
25722;BME280;13578;53.450;15.496;2023-01-19T06:58:12;98563.28;;;-4.97;100.00
25722;BME280;13578;53.450;15.496;2023-01-19T07:01:13;98562.38;;;-4.98;100.00
25722;BME280;13578;53.450;15.496;2023-01-19T07:04:14;98550.09;;;-5.02;100.00
25722;BME280;13578;53.450;15.496;2023-01-19T07:07:15;98561.16;;;-5.10;100.00
25722;BME280;13578;53.450;15.496;2023-01-19T07:10:16;98567.78;;;-5.18;100.00
25722;BME280;13578;53.450;15.496;2023-01-19T07:13:16;98571.56;;;-5.22;100.00
25722;BME280;13578;53.450;15.496;2023-01-19T07:16:17;98574.28;;;-5.24;100.00
25722;BME280;13578;53.450;15.496;2023-01-19T07:19:18;98575.38;;;-5.28;100.00
25722;BME280;13578;53.450;15.496;2023-01-19T07:22:18;98571.75;;;-5.27;100.00
25722;BME280;13578;53.450;15.496;2023-01-19T07:25:19;98583.13;;;-5.22;100.00
25722;BME280;13578;53.450;15.496;2023-01-19T07:28:20;98587.25;;;-5.15;100.00
25722;BME280;13578;53.450;15.496;2023-01-19T07:31:21;98587.25;;;-5.15;100.00
25722;BME280;13578;53.450;15.496;2023-01-19T07:34:21;98593.53;;;-5.16;100.00
25722;BME280;13578;53.450;15.496;2023-01-19T07:37:22;98593.00;;;-5.03;100.00
25722;BME280;13578;53.450;15.496;2023-01-19T07:40:23;98598.47;;;-5.06;100.00
25722;BME280;13578;53.450;15.496;2023-01-19T07:43:23;98591.97;;;-5.01;100.00
25722;BME280;13578;53.450;15.496;2023-01-19T07:46:24;98584.59;;;-4.96;100.00
25722;BME280;13578;53.450;15.496;2023-01-19T07:49:24;98590.81;;;-4.95;100.00
25722;BME280;13578;53.450;15.496;2023-01-19T07:52:25;98581.81;;;-4.92;100.00
25722;BME280;13578;53.450;15.496;2023-01-19T07:55:26;98586.19;;;-4.91;100.00
25722;BME280;13578;53.450;15.496;2023-01-19T07:58:26;98596.47;;;-4.82;100.00
25722;BME280;13578;53.450;15.496;2023-01-19T08:01:27;98602.22;;;-4.71;100.00
25722;BME280;13578;53.450;15.496;2023-01-19T08:04:28;98602.22;;;-4.71;100.00
25722;BME280;13578;53.450;15.496;2023-01-19T08:07:29;98596.47;;;-4.63;100.00
25722;BME280;13578;53.450;15.496;2023-01-19T08:10:30;98611.25;;;-4.54;100.00
25722;BME280;13578;53.450;15.496;2023-01-19T08:13:30;98608.28;;;-4.48;100.00
25722;BME280;13578;53.450;15.496;2023-01-19T08:16:31;98618.91;;;-4.27;100.00
25722;BME280;13578;53.450;15.496;2023-01-19T08:19:32;98624.41;;;-4.31;100.00
25722;BME280;13578;53.450;15.496;2023-01-19T08:22:32;98617.97;;;-4.26;100.00
25722;BME280;13578;53.450;15.496;2023-01-19T08:25:38;98629.41;;;-4.23;100.00
25722;BME280;13578;53.450;15.496;2023-01-19T08:28:41;98627.72;;;-4.25;100.00
25722;BME280;13578;53.450;15.496;2023-01-19T08:31:41;98631.06;;;-4.20;100.00
25722;BME280;13578;53.450;15.496;2023-01-19T08:34:43;98639.63;;;-4.12;100.00
25722;BME280;13578;53.450;15.496;2023-01-19T08:37:43;98635.69;;;-4.05;100.00
25722;BME280;13578;53.450;15.496;2023-01-19T08:40:44;98635.38;;;-3.99;100.00
25722;BME280;13578;53.450;15.496;2023-01-19T08:43:45;98645.22;;;-3.99;100.00
25722;BME280;13578;53.450;15.496;2023-01-19T08:46:46;98651.25;;;-3.94;100.00
25722;BME280;13578;53.450;15.496;2023-01-19T08:49:47;98656.09;;;-3.83;100.00
25722;BME280;13578;53.450;15.496;2023-01-19T08:52:47;98659.25;;;-3.75;100.00
25722;BME280;13578;53.450;15.496;2023-01-19T08:55:48;98655.00;;;-3.61;100.00
25722;BME280;13578;53.450;15.496;2023-01-19T08:58:49;98658.94;;;-3.69;100.00
25722;BME280;13578;53.450;15.496;2023-01-19T09:01:49;98658.22;;;-3.72;100.00
25722;BME280;13578;53.450;15.496;2023-01-19T09:04:50;98665.78;;;-3.63;100.00
25722;BME280;13578;53.450;15.496;2023-01-19T09:07:51;98670.38;;;-3.47;100.00
25722;BME280;13578;53.450;15.496;2023-01-19T09:10:51;98667.25;;;-3.38;100.00
25722;BME280;13578;53.450;15.496;2023-01-19T09:13:52;98674.91;;;-3.30;100.00
25722;BME280;13578;53.450;15.496;2023-01-19T09:16:52;98681.13;;;-3.30;100.00
25722;BME280;13578;53.450;15.496;2023-01-19T09:19:55;98690.69;;;-3.24;100.00
25722;BME280;13578;53.450;15.496;2023-01-19T09:22:57;98691.22;;;-3.17;100.00
25722;BME280;13578;53.450;15.496;2023-01-19T09:26:00;98698.91;;;-3.10;100.00
25722;BME280;13578;53.450;15.496;2023-01-19T09:29:01;98696.84;;;-3.05;100.00
25722;BME280;13578;53.450;15.496;2023-01-19T09:32:01;98697.47;;;-2.99;100.00
25722;BME280;13578;53.450;15.496;2023-01-19T09:35:02;98699.69;;;-2.90;100.00
25722;BME280;13578;53.450;15.496;2023-01-19T09:38:04;98703.78;;;-2.83;100.00
25722;BME280;13578;53.450;15.496;2023-01-19T09:41:18;98715.78;;;-2.90;100.00
25722;BME280;13578;53.450;15.496;2023-01-19T09:44:39;98714.06;;;-2.91;100.00
25722;BME280;13578;53.450;15.496;2023-01-19T09:47:43;98707.88;;;-2.93;100.00
25722;BME280;13578;53.450;15.496;2023-01-19T09:50:44;98704.81;;;-2.85;100.00
25722;BME280;13578;53.450;15.496;2023-01-19T09:54:08;98700.63;;;-2.74;100.00
25722;BME280;13578;53.450;15.496;2023-01-19T09:57:12;98705.66;;;-2.67;100.00
25722;BME280;13578;53.450;15.496;2023-01-19T10:00:17;98691.34;;;-2.68;100.00
25722;BME280;13578;53.450;15.496;2023-01-19T10:03:18;98689.19;;;-2.61;100.00
25722;BME280;13578;53.450;15.496;2023-01-19T10:06:20;98688.25;;;-2.60;100.00
25722;BME280;13578;53.450;15.496;2023-01-19T10:09:47;98678.38;;;-2.60;100.00
25722;BME280;13578;53.450;15.496;2023-01-19T10:19:26;98670.84;;;-2.53;100.00
25722;BME280;13578;53.450;15.496;2023-01-19T10:22:28;98674.00;;;-2.45;100.00
25722;BME280;13578;53.450;15.496;2023-01-19T10:25:29;98669.84;;;-2.34;100.00
25722;BME280;13578;53.450;15.496;2023-01-19T10:28:31;98671.56;;;-2.33;100.00
25722;BME280;13578;53.450;15.496;2023-01-19T10:31:33;98678.88;;;-2.35;100.00
25722;BME280;13578;53.450;15.496;2023-01-19T10:34:35;98668.47;;;-2.26;100.00
25722;BME280;13578;53.450;15.496;2023-01-19T10:37:37;98663.69;;;-2.20;100.00
25722;BME280;13578;53.450;15.496;2023-01-19T10:40:52;98666.66;;;-2.09;100.00
25722;BME280;13578;53.450;15.496;2023-01-19T10:44:02;98663.38;;;-1.98;100.00
25722;BME280;13578;53.450;15.496;2023-01-19T10:47:04;98662.81;;;-1.89;100.00
25722;BME280;13578;53.450;15.496;2023-01-19T10:50:33;98665.28;;;-2.00;100.00
25722;BME280;13578;53.450;15.496;2023-01-19T10:53:36;98666.75;;;-1.95;100.00
25722;BME280;13578;53.450;15.496;2023-01-19T10:56:37;98674.38;;;-1.87;100.00
25722;BME280;13578;53.450;15.496;2023-01-19T10:59:47;98678.34;;;-1.78;100.00
25722;BME280;13578;53.450;15.496;2023-01-19T11:02:51;98685.31;;;-1.74;100.00
25722;BME280;13578;53.450;15.496;2023-01-19T11:05:52;98679.03;;;-1.74;100.00
25722;BME280;13578;53.450;15.496;2023-01-19T11:09:09;98686.53;;;-1.80;100.00
25722;BME280;13578;53.450;15.496;2023-01-19T11:12:21;98689.22;;;-1.80;100.00
25722;BME280;13578;53.450;15.496;2023-01-19T11:15:26;98688.25;;;-1.79;100.00
25722;BME280;13578;53.450;15.496;2023-01-19T11:18:33;98679.41;;;-1.81;100.00
25722;BME280;13578;53.450;15.496;2023-01-19T11:21:35;98675.59;;;-1.77;100.00
25722;BME280;13578;53.450;15.496;2023-01-19T11:24:37;98684.25;;;-1.71;100.00
25722;BME280;13578;53.450;15.496;2023-01-19T11:27:47;98679.03;;;-1.74;100.00
25722;BME280;13578;53.450;15.496;2023-01-19T11:30:56;98673.31;;;-1.68;100.00
25722;BME280;13578;53.450;15.496;2023-01-19T11:34:02;98673.03;;;-1.64;100.00
25722;BME280;13578;53.450;15.496;2023-01-19T11:37:04;98672.78;;;-1.59;100.00
25722;BME280;13578;53.450;15.496;2023-01-19T11:40:07;98664.47;;;-1.70;100.00
25722;BME280;13578;53.450;15.496;2023-01-19T11:43:11;98655.88;;;-1.77;100.00
25722;BME280;13578;53.450;15.496;2023-01-19T11:46:12;98668.13;;;-1.71;100.00
25722;BME280;13578;53.450;15.496;2023-01-19T11:49:30;98672.63;;;-1.72;100.00
25722;BME280;13578;53.450;15.496;2023-01-19T11:52:36;98665.44;;;-1.71;100.00
25722;BME280;13578;53.450;15.496;2023-01-19T11:55:48;98664.13;;;-1.64;100.00
25722;BME280;13578;53.450;15.496;2023-01-19T11:58:51;98658.53;;;-1.61;100.00
25722;BME280;13578;53.450;15.496;2023-01-19T12:01:56;98657.72;;;-1.78;100.00
25722;BME280;13578;53.450;15.496;2023-01-19T12:04:59;98653.78;;;-1.72;100.00
25722;BME280;13578;53.450;15.496;2023-01-19T12:08:04;98662.03;;;-1.59;100.00
25722;BME280;13578;53.450;15.496;2023-01-19T12:11:11;98646.94;;;-1.62;100.00
25722;BME280;13578;53.450;15.496;2023-01-19T12:17:39;98658.75;;;-1.64;100.00
25722;BME280;13578;53.450;15.496;2023-01-19T12:20:47;98657.41;;;-1.57;100.00
25722;BME280;13578;53.450;15.496;2023-01-19T12:24:13;98658.69;;;-1.48;100.00
25722;BME280;13578;53.450;15.496;2023-01-19T12:27:39;98648.03;;;-1.50;100.00
25722;BME280;13578;53.450;15.496;2023-01-19T12:30:47;98647.34;;;-1.53;100.00
25722;BME280;13578;53.450;15.496;2023-01-19T12:33:49;98653.50;;;-1.51;100.00
25722;BME280;13578;53.450;15.496;2023-01-19T12:36:51;98656.47;;;-1.56;100.00
25722;BME280;13578;53.450;15.496;2023-01-19T12:39:56;98647.44;;;-1.55;100.00
25722;BME280;13578;53.450;15.496;2023-01-19T12:43:00;98649.34;;;-1.57;100.00
25722;BME280;13578;53.450;15.496;2023-01-19T12:46:27;98656.47;;;-1.56;100.00
25722;BME280;13578;53.450;15.496;2023-01-19T12:52:47;98642.91;;;-1.54;100.00
25722;BME280;13578;53.450;15.496;2023-01-19T12:55:58;98643.59;;;-1.51;100.00
25722;BME280;13578;53.450;15.496;2023-01-19T12:59:00;98661.28;;;-1.47;100.00
25722;BME280;13578;53.450;15.496;2023-01-19T13:15:46;98659.00;;;-1.38;100.00
25722;BME280;13578;53.450;15.496;2023-01-19T13:18:59;98663.13;;;-1.47;100.00
25722;BME280;13578;53.450;15.496;2023-01-19T13:25:40;98669.13;;;-1.58;100.00
25722;BME280;13578;53.450;15.496;2023-01-19T13:28:47;98667.22;;;-1.56;100.00
25722;BME280;13578;53.450;15.496;2023-01-19T13:31:49;98679.03;;;-1.58;100.00
25722;BME280;13578;53.450;15.496;2023-01-19T13:34:56;98675.59;;;-1.77;100.00
25722;BME280;13578;53.450;15.496;2023-01-19T13:37:58;98676.72;;;-1.81;100.00
25722;BME280;13578;53.450;15.496;2023-01-19T13:41:00;98672.97;;;-1.78;100.00
25722;BME280;13578;53.450;15.496;2023-01-19T13:47:14;98676.81;;;-1.82;100.00
25722;BME280;13578;53.450;15.496;2023-01-19T13:50:22;98677.31;;;-1.76;100.00
25722;BME280;13578;53.450;15.496;2023-01-19T13:53:23;98668.38;;;-1.76;100.00
25722;BME280;13578;53.450;15.496;2023-01-19T13:56:28;98675.72;;;-1.64;100.00
25722;BME280;13578;53.450;15.496;2023-01-19T13:59:28;98677.94;;;-1.70;100.00
25722;BME280;13578;53.450;15.496;2023-01-19T14:02:29;98676.78;;;-1.66;100.00
25722;BME280;13578;53.450;15.496;2023-01-19T14:05:34;98663.34;;;-1.66;100.00
25722;BME280;13578;53.450;15.496;2023-01-19T14:08:35;98684.34;;;-1.57;100.00
25722;BME280;13578;53.450;15.496;2023-01-19T14:11:36;98691.50;;;-1.57;100.00
25722;BME280;13578;53.450;15.496;2023-01-19T14:14:36;98677.56;;;-1.64;100.00
25722;BME280;13578;53.450;15.496;2023-01-19T14:17:38;98674.69;;;-1.61;100.00
25722;BME280;13578;53.450;15.496;2023-01-19T14:20:40;98684.59;;;-1.62;100.00
25722;BME280;13578;53.450;15.496;2023-01-19T14:23:52;98676.41;;;-1.60;100.00
25722;BME280;13578;53.450;15.496;2023-01-19T14:27:23;98677.38;;;-1.61;100.00
25722;BME280;13578;53.450;15.496;2023-01-19T14:30:27;98670.56;;;-1.67;100.00
25722;BME280;13578;53.450;15.496;2023-01-19T14:33:41;98678.69;;;-1.68;100.00
25722;BME280;13578;53.450;15.496;2023-01-19T14:36:44;98669.16;;;-1.74;100.00
25722;BME280;13578;53.450;15.496;2023-01-19T14:39:51;98673.13;;;-1.65;100.00
25722;BME280;13578;53.450;15.496;2023-01-19T14:42:56;98671.41;;;-1.66;100.00
25722;BME280;13578;53.450;15.496;2023-01-19T14:46:05;98665.25;;;-1.84;100.00
25722;BME280;13578;53.450;15.496;2023-01-19T14:49:06;98671.75;;;-1.72;100.00
25722;BME280;13578;53.450;15.496;2023-01-19T14:52:37;98675.25;;;-1.70;100.00
25722;BME280;13578;53.450;15.496;2023-01-19T14:55:47;98675.91;;;-1.83;100.00
25722;BME280;13578;53.450;15.496;2023-01-19T14:58:48;98682.44;;;-1.87;100.00
25722;BME280;13578;53.450;15.496;2023-01-19T15:01:49;98692.59;;;-1.76;100.00
25722;BME280;13578;53.450;15.496;2023-01-19T15:04:50;98690.44;;;-1.69;100.00
25722;BME280;13578;53.450;15.496;2023-01-19T15:07:54;98692.75;;;-1.79;100.00
25722;BME280;13578;53.450;15.496;2023-01-19T15:10:55;98692.84;;;-1.81;100.00
25722;BME280;13578;53.450;15.496;2023-01-19T15:13:58;98694.34;;;-1.91;100.00
25722;BME280;13578;53.450;15.496;2023-01-19T15:16:58;98703.88;;;-1.85;100.00
25722;BME280;13578;53.450;15.496;2023-01-19T15:20:00;98709.34;;;-1.87;100.00
25722;BME280;13578;53.450;15.496;2023-01-19T15:23:00;98705.81;;;-1.87;100.00
25722;BME280;13578;53.450;15.496;2023-01-19T15:26:03;98706.22;;;-1.95;100.00
25722;BME280;13578;53.450;15.496;2023-01-19T15:29:19;98707.69;;;-1.89;100.00
25722;BME280;13578;53.450;15.496;2023-01-19T15:32:20;98705.69;;;-1.86;100.00
25722;BME280;13578;53.450;15.496;2023-01-19T15:35:22;98699.88;;;-1.78;100.00
25722;BME280;13578;53.450;15.496;2023-01-19T15:38:23;98701.34;;;-1.72;100.00
25722;BME280;13578;53.450;15.496;2023-01-19T15:41:27;98702.22;;;-1.72;100.00
25722;BME280;13578;53.450;15.496;2023-01-19T15:44:30;98719.25;;;-1.71;100.00
25722;BME280;13578;53.450;15.496;2023-01-19T15:47:31;98709.84;;;-1.64;100.00
25722;BME280;13578;53.450;15.496;2023-01-19T15:50:34;98724.94;;;-1.62;100.00
25722;BME280;13578;53.450;15.496;2023-01-19T15:53:35;98718.88;;;-1.65;100.00
25722;BME280;13578;53.450;15.496;2023-01-19T15:56:35;98720.53;;;-1.63;100.00
25722;BME280;13578;53.450;15.496;2023-01-19T15:59:36;98734.56;;;-1.57;100.00
25722;BME280;13578;53.450;15.496;2023-01-19T16:02:37;98723.47;;;-1.51;100.00
25722;BME280;13578;53.450;15.496;2023-01-19T16:05:38;98734.56;;;-1.41;100.00
25722;BME280;13578;53.450;15.496;2023-01-19T16:08:38;98734.06;;;-1.48;100.00
25722;BME280;13578;53.450;15.496;2023-01-19T16:11:39;98742.91;;;-1.46;100.00
25722;BME280;13578;53.450;15.496;2023-01-19T16:14:40;98742.91;;;-1.46;100.00
25722;BME280;13578;53.450;15.496;2023-01-19T16:17:41;98733.69;;;-1.42;100.00
25722;BME280;13578;53.450;15.496;2023-01-19T16:20:41;98743.72;;;-1.44;100.00
25722;BME280;13578;53.450;15.496;2023-01-19T16:23:42;98741.88;;;-1.44;100.00
25722;BME280;13578;53.450;15.496;2023-01-19T16:26:43;98732.84;;;-1.42;100.00
25722;BME280;13578;53.450;15.496;2023-01-19T16:29:44;98739.88;;;-1.40;100.00